Time;durP1;ratioP1;P1;durP2;ratioP2;P2;SDS_P1;SDS_P2;PMS_P1;PMS_P2;Temp;Humidity;BMP_temperature;BMP_pressure;BME280_temperature;BME280_humidity;BME280_pressure;Samples;Min_cycle;Max_cycle;Signal;HPM_P1;HPM_P2
2022/04/16 00:01:12;;;;;;;12.23;9.60;;;7.50;99.90;;;;;;5081517;28;20174;-43
2022/04/16 00:03:38;;;;;;;14.37;9.30;;;7.50;99.90;;;;;;5097514;28;20182;-43
2022/04/16 00:06:04;;;;;;;16.10;10.10;;;7.50;99.90;;;;;;5097554;28;20281;-47
2022/04/16 00:08:30;;;;;;;16.63;9.63;;;7.50;99.90;;;;;;5097253;28;20228;-44
2022/04/16 00:10:56;;;;;;;17.13;9.67;;;7.40;99.90;;;;;;5098203;28;20201;-45
2022/04/16 00:13:22;;;;;;;13.83;9.33;;;7.50;99.90;;;;;;5097174;28;20174;-44
2022/04/16 00:15:49;;;;;;;12.50;10.13;;;7.50;99.90;;;;;;5096544;28;20175;-44
2022/04/16 00:18:16;;;;;;;15.77;10.00;;;7.50;99.90;;;;;;5097079;28;20177;-44
2022/04/16 00:20:43;;;;;;;16.33;10.40;;;7.40;99.90;;;;;;5097512;28;20181;-44
2022/04/16 00:23:09;;;;;;;14.23;9.97;;;7.50;99.90;;;;;;5077899;28;20186;-47
2022/04/16 00:25:35;;;;;;;15.47;10.43;;;7.50;99.90;;;;;;5096563;28;20240;-45
2022/04/16 00:28:02;;;;;;;12.07;9.53;;;7.40;99.90;;;;;;5096138;28;20237;-44
2022/04/16 00:30:28;;;;;;;14.93;10.27;;;7.40;99.90;;;;;;5095941;28;20239;-46
2022/04/16 00:32:57;;;;;;;16.63;11.20;;;7.40;99.90;;;;;;5095952;28;20171;-46
2022/04/16 00:35:23;;;;;;;16.73;10.37;;;7.40;99.90;;;;;;5096416;28;20640;-45
2022/04/16 00:37:49;;;;;;;16.73;11.00;;;7.40;99.90;;;;;;5095974;28;20225;-45
2022/04/16 00:40:15;;;;;;;16.27;11.00;;;7.30;99.90;;;;;;5097953;28;20193;-42
2022/04/16 00:42:44;;;;;;;14.70;10.77;;;7.40;99.90;;;;;;5100452;28;20563;-44
2022/04/16 00:45:10;;;;;;;19.33;11.63;;;7.40;99.90;;;;;;5100260;28;20319;-45
2022/04/16 00:47:36;;;;;;;16.30;12.10;;;7.40;99.90;;;;;;5099568;28;20214;-44
2022/04/16 00:50:04;;;;;;;15.90;11.37;;;7.30;99.90;;;;;;5099654;28;20175;-45
2022/04/16 00:52:29;;;;;;;20.57;11.77;;;7.30;99.90;;;;;;5099738;28;20189;-46
2022/04/16 00:54:55;;;;;;;18.40;11.47;;;7.30;99.90;;;;;;5099552;28;20170;-46
2022/04/16 00:57:23;;;;;;;14.47;11.27;;;7.30;99.90;;;;;;5099592;28;20202;-45
2022/04/16 00:59:49;;;;;;;16.70;12.17;;;7.30;99.90;;;;;;5099871;28;20186;-45
2022/04/16 01:02:14;;;;;;;14.47;11.23;;;7.30;99.90;;;;;;5099679;28;20179;-44
2022/04/16 01:04:40;;;;;;;14.70;11.60;;;7.30;99.90;;;;;;5100396;28;20255;-45
2022/04/16 01:07:06;;;;;;;18.20;11.60;;;7.30;99.90;;;;;;5100963;28;20228;-45
2022/04/16 01:09:33;;;;;;;19.57;11.50;;;7.20;99.90;;;;;;5100988;28;20225;-45
2022/04/16 01:11:59;;;;;;;14.50;11.63;;;7.20;99.90;;;;;;5100625;28;20182;-46
2022/04/16 01:14:25;;;;;;;13.73;10.47;;;7.20;99.90;;;;;;5101320;28;20525;-44
2022/04/16 01:16:56;;;;;;;16.60;11.23;;;7.20;99.90;;;;;;5100847;28;20199;-46
2022/04/16 01:19:25;;;;;;;14.87;11.40;;;7.10;99.90;;;;;;5100588;28;20170;-44
2022/04/16 01:21:51;;;;;;;14.87;10.90;;;7.10;99.90;;;;;;5101147;28;20344;-47
2022/04/16 01:24:17;;;;;;;15.07;11.10;;;7.00;99.90;;;;;;5100915;28;20652;-46
2022/04/16 01:26:43;;;;;;;16.07;11.33;;;6.90;99.90;;;;;;5100876;28;20707;-44
2022/04/16 01:29:12;;;;;;;17.80;12.07;;;6.80;99.90;;;;;;5101336;28;20179;-47
2022/04/16 01:31:38;;;;;;;15.67;11.43;;;6.80;99.90;;;;;;5100548;28;20192;-45
2022/04/16 01:34:03;;;;;;;13.67;10.43;;;6.80;99.90;;;;;;5100460;28;20671;-45
2022/04/16 01:36:34;;;;;;;16.23;10.23;;;6.80;99.90;;;;;;5101460;28;20229;-45
2022/04/16 01:39:00;;;;;;;12.50;10.33;;;6.80;99.90;;;;;;5101499;28;20192;-46
2022/04/16 01:41:28;;;;;;;13.10;10.13;;;6.70;99.90;;;;;;5102175;28;20186;-46
2022/04/16 01:43:55;;;;;;;12.27;9.37;;;6.60;99.90;;;;;;5102082;28;20189;-45
2022/04/16 01:46:21;;;;;;;13.57;9.37;;;6.60;99.90;;;;;;5102057;28;20217;-46
2022/04/16 01:48:49;;;;;;;12.50;9.43;;;6.50;99.90;;;;;;5102753;28;20177;-45
2022/04/16 01:51:17;;;;;;;14.23;10.03;;;6.40;99.90;;;;;;5101539;28;20262;-46
2022/04/16 01:53:44;;;;;;;13.60;9.33;;;6.40;99.90;;;;;;5102110;28;20201;-46
2022/04/16 01:56:11;;;;;;;12.87;9.27;;;6.20;99.90;;;;;;5103330;28;20210;-47
2022/04/16 01:58:39;;;;;;;15.87;11.27;;;6.20;99.90;;;;;;5105909;28;20182;-45
2022/04/16 02:01:05;;;;;;;12.40;9.67;;;6.20;99.90;;;;;;5104368;28;20211;-46
2022/04/16 02:03:31;;;;;;;15.77;10.97;;;6.10;99.90;;;;;;5101003;28;20695;-44
2022/04/16 02:05:57;;;;;;;13.53;10.17;;;6.10;99.90;;;;;;5100927;28;20194;-46
2022/04/16 02:08:23;;;;;;;12.83;9.87;;;6.00;99.90;;;;;;5100393;28;20290;-43
2022/04/16 02:10:49;;;;;;;13.10;9.60;;;6.10;99.90;;;;;;5101206;28;20571;-45
2022/04/16 02:13:14;;;;;;;16.23;10.17;;;6.00;99.90;;;;;;5100709;28;20645;-44
2022/04/16 02:15:40;;;;;;;14.87;11.00;;;6.00;99.90;;;;;;5081966;28;20549;-45
2022/04/16 02:18:06;;;;;;;13.50;9.90;;;5.90;99.90;;;;;;5100998;28;20179;-44
2022/04/16 02:20:31;;;;;;;14.40;10.13;;;5.90;99.90;;;;;;5100615;28;20177;-46
2022/04/16 02:22:57;;;;;;;15.20;9.87;;;5.80;99.90;;;;;;5100633;28;20632;-45
2022/04/16 02:25:25;;;;;;;12.50;8.83;;;5.80;99.90;;;;;;5097416;28;20209;-41
2022/04/16 02:27:51;;;;;;;14.13;8.70;;;5.80;99.90;;;;;;5095446;28;20259;-38
2022/04/16 02:30:18;;;;;;;11.43;8.77;;;5.70;99.90;;;;;;5095494;28;20184;-39
2022/04/16 02:32:46;;;;;;;12.87;9.53;;;5.70;99.90;;;;;;5095226;28;20180;-39
2022/04/16 02:35:13;;;;;;;14.77;9.93;;;5.60;99.90;;;;;;5095454;28;20727;-41
2022/04/16 02:37:39;;;;;;;13.03;10.17;;;5.50;99.90;;;;;;5094924;28;20205;-39
2022/04/16 02:40:07;;;;;;;14.40;11.33;;;5.50;99.90;;;;;;5095085;28;20170;-41
2022/04/16 02:42:37;;;;;;;13.53;10.97;;;5.40;99.90;;;;;;5094991;28;20258;-39
2022/04/16 02:47:53;;;;;;;18.20;12.53;;;5.50;99.90;;;;;;5094992;28;20299;-40
2022/04/16 02:50:19;;;;;;;16.17;12.03;;;5.50;99.90;;;;;;5094874;28;20265;-39
2022/04/16 02:52:46;;;;;;;14.73;11.43;;;5.50;99.90;;;;;;5094761;28;20172;-42
2022/04/16 02:55:15;;;;;;;17.10;12.33;;;5.50;99.90;;;;;;5095091;28;20177;-41
2022/04/16 02:57:44;;;;;;;19.97;12.03;;;5.50;99.90;;;;;;5094619;28;20279;-41
2022/04/16 03:00:12;;;;;;;14.97;11.57;;;5.50;99.90;;;;;;5094917;28;20180;-40
2022/04/16 03:02:37;;;;;;;16.67;11.87;;;5.40;99.90;;;;;;5094617;28;20588;-38
2022/04/16 03:05:06;;;;;;;16.43;11.37;;;5.40;99.90;;;;;;5095232;28;20192;-39
2022/04/16 03:07:32;;;;;;;14.03;10.73;;;5.40;99.90;;;;;;5094620;28;20201;-41
2022/04/16 03:09:58;;;;;;;17.57;12.33;;;5.30;99.90;;;;;;5094802;28;20539;-43
2022/04/16 03:12:24;;;;;;;19.70;12.90;;;5.30;99.90;;;;;;5094734;28;20198;-41
2022/04/16 03:17:34;;;;;;;18.60;13.00;;;5.20;99.90;;;;;;5094378;28;20289;-41
2022/04/16 03:20:09;;;;;;;18.00;12.87;;;5.20;99.90;;;;;;5094586;28;20205;-42
2022/04/16 03:22:37;;;;;;;17.47;12.53;;;5.10;99.90;;;;;;5094646;28;20186;-41
2022/04/16 03:25:08;;;;;;;17.83;12.23;;;5.20;99.90;;;;;;5094445;28;20179;-40
2022/04/16 03:27:34;;;;;;;17.13;12.07;;;5.10;99.90;;;;;;5094950;28;20243;-41
2022/04/16 03:30:01;;;;;;;17.37;11.87;;;5.10;99.90;;;;;;5095406;28;20173;-42
2022/04/16 03:32:26;;;;;;;14.43;10.00;;;5.00;99.90;;;;;;5095738;28;20170;-41
2022/04/16 03:34:52;;;;;;;15.13;10.73;;;5.00;99.90;;;;;;5094905;28;20180;-40
2022/04/16 03:37:18;;;;;;;13.47;9.53;;;5.00;99.90;;;;;;5094084;28;20196;-40
2022/04/16 03:39:44;;;;;;;14.93;10.20;;;4.90;99.90;;;;;;5093952;28;20233;-38
2022/04/16 03:42:10;;;;;;;13.47;9.97;;;4.80;99.90;;;;;;5094126;28;20207;-39
2022/04/16 03:44:37;;;;;;;13.63;10.30;;;4.80;99.90;;;;;;5095507;28;20251;-40
2022/04/16 03:47:03;;;;;;;16.13;11.87;;;4.70;99.90;;;;;;5093887;28;20582;-40
2022/04/16 03:49:29;;;;;;;16.37;11.90;;;4.70;99.90;;;;;;5093751;28;20252;-40
2022/04/16 03:51:54;;;;;;;18.07;12.60;;;4.70;99.90;;;;;;5093728;28;20227;-39
2022/04/16 03:59:59;;;;;;;17.90;12.97;;;4.70;99.90;;;;;;5054978;28;20592;-40
2022/04/16 04:02:26;;;;;;;19.97;13.83;;;4.70;99.90;;;;;;5093553;28;20217;-39
2022/04/16 04:04:52;;;;;;;18.07;13.23;;;4.70;99.90;;;;;;5093565;28;20171;-40
2022/04/16 04:07:17;;;;;;;22.40;13.97;;;4.70;99.90;;;;;;5093378;28;20210;-38
2022/04/16 04:09:44;;;;;;;19.50;14.13;;;4.60;99.90;;;;;;5093520;28;20180;-40
2022/04/16 04:12:11;;;;;;;18.93;14.07;;;4.70;99.90;;;;;;5093719;28;20167;-41
2022/04/16 04:14:44;;;;;;;19.13;14.60;;;4.70;99.90;;;;;;5093042;28;20178;-39
2022/04/16 04:17:10;;;;;;;19.77;13.87;;;4.70;99.90;;;;;;5093550;28;20602;-38
2022/04/16 04:19:40;;;;;;;21.70;14.80;;;4.70;99.90;;;;;;5093385;28;20368;-41
2022/04/16 04:22:08;;;;;;;20.27;14.97;;;4.70;99.90;;;;;;5093569;28;20194;-37
2022/04/16 04:24:36;;;;;;;21.53;14.83;;;4.80;99.90;;;;;;5093304;28;20606;-40
2022/04/16 04:27:01;;;;;;;25.93;15.90;;;4.90;99.90;;;;;;5093202;28;20236;-40
2022/04/16 04:29:28;;;;;;;19.60;14.43;;;4.90;99.90;;;;;;5093575;28;20202;-38
2022/04/16 04:31:54;;;;;;;24.70;15.73;;;4.90;99.90;;;;;;5093222;28;20179;-42
2022/04/16 04:34:20;;;;;;;24.77;15.77;;;4.90;99.90;;;;;;5093502;28;20230;-40
2022/04/16 04:36:46;;;;;;;23.20;15.67;;;4.90;99.90;;;;;;5093179;28;20196;-40
2022/04/16 04:39:12;;;;;;;23.17;15.90;;;4.90;99.90;;;;;;5093057;28;20199;-42
2022/04/16 04:41:38;;;;;;;26.33;16.53;;;4.90;99.90;;;;;;5093409;28;20273;-40
2022/04/16 04:44:04;;;;;;;23.70;15.57;;;4.90;99.90;;;;;;5093405;28;20257;-38
2022/04/16 04:46:30;;;;;;;23.13;16.27;;;4.80;99.90;;;;;;5093221;28;20211;-41
2022/04/16 04:48:56;;;;;;;28.70;16.70;;;4.80;99.90;;;;;;5093063;28;20175;-41
2022/04/16 04:51:21;;;;;;;24.60;16.60;;;4.80;99.90;;;;;;5093013;28;20305;-40
2022/04/16 04:53:47;;;;;;;25.07;16.53;;;4.80;99.90;;;;;;5093243;28;20305;-42
2022/04/16 04:56:13;;;;;;;25.70;16.37;;;4.80;99.90;;;;;;5093209;28;20195;-42
2022/04/16 04:58:38;;;;;;;22.43;15.63;;;4.80;99.90;;;;;;5093061;28;20171;-40
2022/04/16 05:01:04;;;;;;;23.80;16.07;;;4.80;99.90;;;;;;5093465;28;20186;-42
2022/04/16 05:03:29;;;;;;;25.60;17.17;;;4.80;99.90;;;;;;5093057;28;20175;-39
2022/04/16 05:05:55;;;;;;;25.70;16.80;;;4.80;99.90;;;;;;5074769;28;20278;-40
2022/04/16 05:08:21;;;;;;;23.93;16.50;;;4.80;99.90;;;;;;5092848;28;20234;-39
2022/04/16 05:10:46;;;;;;;24.93;16.90;;;4.80;99.90;;;;;;5092949;28;20175;-39
2022/04/16 05:13:12;;;;;;;25.70;16.07;;;4.80;99.90;;;;;;5093097;28;20172;-40
2022/04/16 05:15:37;;;;;;;24.87;15.63;;;4.80;99.90;;;;;;5092762;28;20207;-42
2022/04/16 05:18:03;;;;;;;27.93;18.83;;;4.80;99.90;;;;;;5093075;28;20190;-40
2022/04/16 05:20:29;;;;;;;23.83;17.40;;;4.80;99.90;;;;;;5092731;28;20183;-41
2022/04/16 05:22:54;;;;;;;29.67;17.57;;;4.80;99.90;;;;;;5093031;28;20179;-41
2022/04/16 05:25:20;;;;;;;27.63;17.93;;;4.80;99.90;;;;;;5092760;28;20179;-41
2022/04/16 05:27:46;;;;;;;27.67;19.20;;;4.80;99.90;;;;;;5096461;28;20207;-39
2022/04/16 05:30:22;;;;;;;26.20;18.00;;;4.90;99.90;;;;;;5096676;28;20179;-38
2022/04/16 05:32:49;;;;;;;25.37;17.93;;;4.90;99.90;;;;;;5096652;28;20530;-40
2022/04/16 05:35:15;;;;;;;29.63;19.63;;;5.00;99.90;;;;;;5096622;28;20540;-41
2022/04/16 05:37:42;;;;;;;27.17;18.43;;;5.00;99.90;;;;;;5096156;28;20691;-38
2022/04/16 05:40:09;;;;;;;29.00;18.63;;;5.10;99.90;;;;;;5096322;28;20179;-39
2022/04/16 05:42:40;;;;;;;29.20;19.47;;;5.10;99.90;;;;;;5096093;28;20198;-42
2022/04/16 05:45:06;;;;;;;32.00;21.47;;;5.20;99.90;;;;;;5096088;28;20198;-39
2022/04/16 05:47:32;;;;;;;30.23;19.50;;;5.20;99.90;;;;;;5095068;28;20218;-41
2022/04/16 05:49:57;;;;;;;31.77;20.10;;;5.40;99.90;;;;;;5096319;28;20182;-40
2022/04/16 05:52:23;;;;;;;31.00;20.20;;;5.30;99.90;;;;;;5095976;28;20182;-38
2022/04/16 05:54:49;;;;;;;30.10;20.53;;;5.40;99.90;;;;;;5095958;28;20647;-39
2022/04/16 05:57:16;;;;;;;28.33;19.57;;;5.40;99.90;;;;;;5095919;28;20711;-42
2022/04/16 05:59:43;;;;;;;29.60;20.23;;;5.50;99.90;;;;;;5096135;28;20545;-38
2022/04/16 06:02:10;;;;;;;37.43;21.67;;;5.50;99.90;;;;;;5096322;28;20183;-39
2022/04/16 06:04:36;;;;;;;32.40;20.10;;;5.60;99.90;;;;;;5096062;28;20186;-38
2022/04/16 06:07:01;;;;;;;38.40;22.30;;;5.70;99.90;;;;;;5095934;28;20751;-40
2022/04/16 06:09:28;;;;;;;38.43;22.80;;;5.70;99.90;;;;;;5095761;28;20179;-39
2022/04/16 06:12:00;;;;;;;31.93;22.47;;;5.80;99.90;;;;;;5095668;28;20706;-38
2022/04/16 06:14:25;;;;;;;35.80;21.87;;;6.00;99.90;;;;;;5095880;28;20257;-40
2022/04/16 06:16:51;;;;;;;40.83;25.23;;;6.10;99.90;;;;;;5095796;28;20281;-39
2022/04/16 06:19:16;;;;;;;41.67;25.20;;;6.20;99.90;;;;;;5095566;28;20265;-40
2022/04/16 06:21:42;;;;;;;39.57;25.70;;;6.30;99.90;;;;;;5095510;28;20206;-40
2022/04/16 06:24:07;;;;;;;35.90;22.57;;;6.40;99.90;;;;;;5095762;28;20168;-37
2022/04/16 06:26:33;;;;;;;36.97;24.40;;;6.60;99.90;;;;;;5095354;28;20195;-41
2022/04/16 06:28:58;;;;;;;40.03;24.67;;;6.80;99.90;;;;;;5095354;28;20264;-40
2022/04/16 06:31:24;;;;;;;41.80;24.70;;;6.90;99.90;;;;;;5095850;28;20175;-39
2022/04/16 06:33:50;;;;;;;41.20;26.23;;;7.00;99.90;;;;;;5095435;28;20635;-40
2022/04/16 06:36:16;;;;;;;40.00;27.70;;;7.20;99.90;;;;;;5095443;28;20203;-40
2022/04/16 06:38:42;;;;;;;43.43;25.90;;;7.40;99.90;;;;;;5076197;28;20226;-41
2022/04/16 06:41:07;;;;;;;36.87;24.47;;;7.50;99.90;;;;;;5095158;28;20211;-38
2022/04/16 06:43:33;;;;;;;38.87;24.90;;;7.60;99.90;;;;;;5095044;28;20182;-45
2022/04/16 06:45:58;;;;;;;33.80;21.47;;;7.60;99.90;;;;;;5094957;28;20670;-45
2022/04/16 06:48:24;;;;;;;37.57;23.37;;;7.70;99.90;;;;;;5095141;28;20206;-45
2022/04/16 06:50:49;;;;;;;28.43;20.70;;;7.90;99.90;;;;;;5095026;28;20571;-44
2022/04/16 06:53:15;;;;;;;32.83;19.87;;;8.00;99.90;;;;;;5094897;28;20175;-45
2022/04/16 06:55:43;;;;;;;28.13;19.63;;;8.20;99.90;;;;;;5094991;28;20274;-44
2022/04/16 06:58:08;;;;;;;27.67;18.97;;;8.40;99.90;;;;;;5095054;28;20193;-45
2022/04/16 07:00:34;;;;;;;28.47;18.20;;;8.50;99.90;;;;;;5095574;28;20197;-44
2022/04/16 07:03:00;;;;;;;29.00;19.50;;;8.60;99.90;;;;;;5094747;28;20552;-42
2022/04/16 07:05:25;;;;;;;24.03;17.27;;;8.70;99.90;;;;;;5094814;28;20170;-43
2022/04/16 07:07:51;;;;;;;26.63;17.57;;;8.70;99.90;;;;;;5094607;28;20207;-44
2022/04/16 07:10:17;;;;;;;27.73;17.83;;;8.80;99.90;;;;;;5094945;28;20167;-44
2022/04/16 07:12:42;;;;;;;23.70;16.73;;;8.90;99.90;;;;;;5094931;28;20167;-45
2022/04/16 07:15:08;;;;;;;22.50;15.93;;;9.10;99.90;;;;;;5094634;28;20216;-44
2022/04/16 07:17:34;;;;;;;26.90;17.40;;;9.40;99.90;;;;;;5094698;28;20221;-45
2022/04/16 07:19:59;;;;;;;28.63;17.07;;;9.60;99.90;;;;;;5094569;28;20187;-44
2022/04/16 07:22:25;;;;;;;25.23;16.23;;;9.70;99.90;;;;;;5094447;28;20659;-42
2022/04/16 07:24:51;;;;;;;28.33;16.70;;;9.90;99.90;;;;;;5094532;28;20183;-44
2022/04/16 07:27:17;;;;;;;22.50;16.80;;;10.00;99.90;;;;;;5094247;28;20676;-46
2022/04/16 07:29:43;;;;;;;23.27;15.90;;;10.10;99.90;;;;;;5094886;28;20277;-46
2022/04/16 07:32:09;;;;;;;24.73;16.17;;;10.20;99.90;;;;;;5094432;28;20203;-45
2022/04/16 07:34:34;;;;;;;23.77;16.43;;;10.20;99.90;;;;;;5094094;28;20179;-45
2022/04/16 07:37:00;;;;;;;21.27;15.00;;;10.20;99.90;;;;;;5094090;28;20263;-44
2022/04/16 07:39:26;;;;;;;21.87;14.40;;;10.40;99.90;;;;;;5093976;28;20706;-45
2022/04/16 07:41:51;;;;;;;20.13;14.63;;;10.70;99.90;;;;;;5093993;28;20187;-44
2022/04/16 07:44:18;;;;;;;17.10;13.37;;;10.90;99.90;;;;;;5094266;28;20247;-45
2022/04/16 07:46:44;;;;;;;18.17;12.77;;;11.00;99.90;;;;;;5075621;28;20204;-47
2022/04/16 07:49:10;;;;;;;19.73;14.50;;;11.10;99.90;;;;;;5093085;28;20205;-45
2022/04/16 07:51:36;;;;;;;23.00;13.97;;;11.10;99.90;;;;;;5093913;28;20211;-44
2022/04/16 07:54:02;;;;;;;22.23;13.37;;;11.10;99.90;;;;;;5093968;28;20675;-45
2022/04/16 07:56:28;;;;;;;23.33;12.07;;;11.10;99.90;;;;;;5093721;28;20599;-46
2022/04/16 07:58:54;;;;;;;17.57;12.83;;;11.10;99.90;;;;;;5094054;28;20175;-46
2022/04/16 08:01:20;;;;;;;18.57;12.00;;;11.20;99.90;;;;;;5093957;28;20189;-45
2022/04/16 08:03:46;;;;;;;20.63;11.97;;;11.50;99.90;;;;;;5093662;28;20563;-44
2022/04/16 08:06:11;;;;;;;21.40;11.83;;;11.70;99.90;;;;;;5093546;28;20213;-46
2022/04/16 08:08:37;;;;;;;18.20;10.90;;;11.90;99.90;;;;;;5094150;28;20298;-45
2022/04/16 08:11:03;;;;;;;17.00;11.03;;;12.10;99.90;;;;;;5095011;28;20186;-45
2022/04/16 08:13:29;;;;;;;14.43;10.63;;;12.20;99.90;;;;;;5094107;28;20171;-45
2022/04/16 08:15:54;;;;;;;16.37;11.10;;;12.20;99.90;;;;;;5093840;28;20202;-43
2022/04/16 08:18:20;;;;;;;15.13;10.90;;;12.30;99.90;;;;;;5093791;28;20174;-43
2022/04/16 08:20:46;;;;;;;13.53;10.73;;;12.40;99.90;;;;;;5093808;28;20186;-44
2022/04/16 08:23:13;;;;;;;25.23;10.30;;;12.40;99.90;;;;;;5094061;28;20182;-47
2022/04/16 08:28:05;;;;;;;15.80;10.60;;;12.60;99.90;;;;;;5093675;28;20213;-46
2022/04/16 08:30:31;;;;;;;13.83;9.57;;;12.60;99.90;;;;;;5093326;28;20181;-44
2022/04/16 08:32:57;;;;;;;12.63;9.87;;;12.60;99.90;;;;;;5093357;28;20274;-46
2022/04/16 08:35:23;;;;;;;15.60;9.83;;;12.70;99.90;;;;;;5093330;28;20219;-45
2022/04/16 08:37:49;;;;;;;17.20;8.80;;;12.70;99.90;;;;;;5093061;28;20315;-44
2022/04/16 08:40:17;;;;;;;10.93;8.63;;;12.80;99.90;;;;;;5093652;28;20643;-44
2022/04/16 08:42:45;;;;;;;11.87;8.90;;;12.90;99.90;;;;;;5093449;28;20187;-45
2022/04/16 08:45:12;;;;;;;11.67;8.87;;;12.90;99.90;;;;;;5093603;28;20178;-46
2022/04/16 08:47:39;;;;;;;12.00;9.33;;;13.00;99.90;;;;;;5093008;28;20207;-44
2022/04/16 08:50:09;;;;;;;14.50;8.60;;;13.10;99.90;;;;;;5093297;28;20167;-44
2022/04/16 08:52:37;;;;;;;12.10;8.60;;;13.30;99.90;;;;;;5093633;28;20296;-45
2022/04/16 08:55:05;;;;;;;12.83;8.53;;;13.30;99.90;;;;;;5093578;28;20171;-45
2022/04/16 08:57:31;;;;;;;11.07;8.60;;;13.30;99.90;;;;;;5092980;28;20229;-44
2022/04/16 08:59:57;;;;;;;11.40;8.60;;;13.30;99.90;;;;;;5093354;28;20644;-45
2022/04/16 09:02:25;;;;;;;11.13;8.40;;;13.30;99.90;;;;;;5096495;28;20175;-45
2022/04/16 09:05:06;;;;;;;10.80;7.80;;;13.40;99.90;;;;;;5097229;28;20181;-44
2022/04/16 09:07:32;;;;;;;9.60;8.33;;;13.50;99.90;;;;;;5097558;28;20761;-46
2022/04/16 09:10:08;;;;;;;8.40;7.50;;;13.80;99.90;;;;;;5097591;28;20550;-42
2022/04/16 09:12:38;;;;;;;10.37;7.53;;;14.00;99.90;;;;;;5097131;28;20183;-47
2022/04/16 09:15:06;;;;;;;10.43;7.87;;;14.20;99.90;;;;;;5078983;28;20178;-46
2022/04/16 09:17:32;;;;;;;10.97;6.90;;;14.40;99.90;;;;;;5097176;28;20206;-45
2022/04/16 09:19:58;;;;;;;6.73;5.07;;;14.50;99.90;;;;;;5097219;28;20163;-43
2022/04/16 09:22:34;;;;;;;8.97;6.80;;;14.50;99.90;;;;;;5097168;28;20602;-46
2022/04/16 09:28:22;;;;;;;6.07;4.83;;;14.80;99.90;;;;;;5096660;28;20312;-45
2022/04/16 09:30:52;;;;;;;8.77;6.10;;;15.00;99.90;;;;;;5096985;28;20183;-45
2022/04/16 09:33:18;;;;;;;8.67;6.23;;;14.90;99.90;;;;;;5096633;28;20595;-45
2022/04/16 09:35:46;;;;;;;7.10;6.00;;;14.90;99.90;;;;;;5096430;28;20208;-45
2022/04/16 09:38:15;;;;;;;7.07;5.87;;;14.80;99.90;;;;;;5096536;28;20249;-45
2022/04/16 09:40:44;;;;;;;10.30;7.00;;;14.90;99.90;;;;;;5096636;28;20185;-46
2022/04/16 09:43:10;;;;;;;8.37;7.03;;;14.80;99.90;;;;;;5096642;28;20193;-46
2022/04/16 09:45:39;;;;;;;9.53;7.33;;;14.80;99.90;;;;;;5096686;28;20179;-45
2022/04/16 09:48:11;;;;;;;9.30;7.50;;;14.70;99.90;;;;;;5096297;28;20295;-45
2022/04/16 09:50:40;;;;;;;13.53;8.40;;;14.80;99.90;;;;;;5096645;28;20162;-45
2022/04/16 09:53:06;;;;;;;10.57;6.67;;;14.70;99.90;;;;;;5096767;28;20175;-45
2022/04/16 09:55:33;;;;;;;8.07;6.00;;;14.80;99.90;;;;;;5096469;28;20167;-45
2022/04/16 09:58:03;;;;;;;8.97;6.50;;;14.90;99.90;;;;;;5096085;28;20193;-46
2022/04/16 10:00:31;;;;;;;8.47;5.70;;;14.80;99.90;;;;;;5096247;28;20706;-45
2022/04/16 10:02:59;;;;;;;8.13;5.13;;;14.80;99.90;;;;;;5095968;28;20187;-44
2022/04/16 10:05:25;;;;;;;5.83;5.00;;;15.00;99.90;;;;;;5095991;28;20167;-46
2022/04/16 10:07:52;;;;;;;5.13;4.47;;;15.20;99.90;;;;;;5095787;28;20673;-46
2022/04/16 10:10:31;;;;;;;25.90;19.63;;;15.30;99.90;;;;;;5096204;28;20537;-45
2022/04/16 10:13:08;;;;;;;7.10;5.63;;;15.60;99.90;;;;;;5095043;28;20639;-44
2022/04/16 10:16:05;;;;;;;6.63;5.53;;;15.80;99.90;;;;;;5095962;28;20531;-45
2022/04/16 10:18:33;;;;;;;6.67;4.80;;;16.10;99.90;;;;;;5095668;28;20175;-44
2022/04/16 10:21:00;;;;;;;5.17;4.53;;;16.30;99.90;;;;;;5095784;28;20262;-46
2022/04/16 10:23:31;;;;;;;5.50;4.60;;;16.40;99.90;;;;;;5096078;28;20179;-46
2022/04/16 10:26:17;;;;;;;5.43;4.63;;;16.30;99.90;;;;;;5095959;28;20201;-46
2022/04/16 10:28:55;;;;;;;5.43;4.60;;;16.30;99.90;;;;;;5095812;28;20274;-45
2022/04/16 10:31:27;;;;;;;5.03;4.53;;;16.10;99.90;;;;;;5095660;28;20170;-45
2022/04/16 10:34:08;;;;;;;9.87;6.30;;;16.10;99.90;;;;;;5095659;28;20155;-47
2022/04/16 10:36:41;;;;;;;5.30;4.77;;;16.10;99.90;;;;;;5095315;28;20202;-47
2022/04/16 10:39:17;;;;;;;7.23;4.73;;;16.30;99.90;;;;;;5095291;28;20201;-42
2022/04/16 10:42:03;;;;;;;6.50;4.80;;;16.40;99.90;;;;;;5095982;28;20178;-44
2022/04/16 10:44:42;;;;;;;8.33;4.90;;;16.60;99.90;;;;;;5095400;28;20171;-45
2022/04/16 10:47:12;;;;;;;5.97;5.37;;;16.80;99.90;;;;;;5095025;28;20242;-46
2022/04/16 10:49:41;;;;;;;6.60;5.40;;;16.70;99.90;;;;;;5095425;28;20609;-45
2022/04/16 10:52:21;;;;;;;6.73;4.87;;;16.80;99.90;;;;;;5095347;28;20175;-43
2022/04/16 10:54:47;;;;;;;6.43;5.37;;;16.60;99.90;;;;;;5095036;28;20168;-45
2022/04/16 10:57:21;;;;;;;5.77;5.00;;;16.50;99.90;;;;;;5095049;28;20672;-46
2022/04/16 10:59:47;;;;;;;6.27;5.10;;;16.30;99.90;;;;;;5095416;28;20254;-45
2022/04/16 11:02:23;;;;;;;5.57;4.57;;;16.30;99.90;;;;;;5095096;28;20222;-46
2022/04/16 11:05:14;;;;;;;5.43;4.63;;;16.20;99.90;;;;;;5095109;28;20171;-46
2022/04/16 11:07:41;;;;;;;4.67;4.20;;;16.30;99.90;;;;;;5090085;28;20226;-46
2022/04/16 11:10:11;;;;;;;4.73;4.23;;;16.40;99.90;;;;;;5094712;28;20171;-46
2022/04/16 11:12:38;;;;;;;5.73;4.17;;;16.50;99.90;;;;;;5094630;28;20194;-47
2022/04/16 11:15:14;;;;;;;5.73;4.40;;;16.70;99.90;;;;;;5094840;28;20182;-45
2022/04/16 11:17:39;;;;;;;4.90;4.40;;;16.70;99.90;;;;;;5076321;28;20264;-46
2022/04/16 11:20:06;;;;;;;5.70;4.50;;;16.80;99.90;;;;;;5094638;28;20183;-46
2022/04/16 11:22:32;;;;;;;5.80;4.23;;;16.60;99.90;;;;;;5094581;28;20179;-45
2022/04/16 11:24:59;;;;;;;4.87;4.30;;;16.60;99.90;;;;;;5094613;28;20213;-46
2022/04/16 11:36:01;;;;;;;3.77;3.27;;;16.30;99.90;;;;;;5094499;28;20167;-45
2022/04/16 11:38:36;;;;;;;5.03;3.40;;;16.30;99.90;;;;;;5094353;28;20217;-45
2022/04/16 11:41:10;;;;;;;4.70;3.60;;;16.40;99.90;;;;;;5094683;28;20162;-46
2022/04/16 11:43:45;;;;;;;6.20;3.60;;;16.40;99.90;;;;;;5094385;28;20165;-48
2022/04/16 11:46:12;;;;;;;3.43;3.00;;;16.60;99.90;;;;;;5094290;28;20198;-45
2022/04/16 11:48:46;;;;;;;5.53;3.67;;;16.70;99.90;;;;;;5093891;28;20191;-45
2022/04/16 11:51:12;;;;;;;4.47;3.40;;;16.90;99.90;;;;;;5094103;28;20213;-44
2022/04/16 11:53:51;;;;;;;4.17;3.50;;;17.10;99.90;;;;;;5094319;28;20207;-45
2022/04/16 11:56:23;;;;;;;3.50;3.20;;;17.40;99.90;;;;;;5094271;28;20194;-44
2022/04/16 11:58:50;;;;;;;3.97;3.57;;;17.50;99.90;;;;;;5093888;28;20178;-45
2022/04/16 12:01:20;;;;;;;4.20;3.57;;;17.60;99.90;;;;;;5093817;28;20170;-45
2022/04/16 12:03:45;;;;;;;4.27;3.10;;;17.70;99.90;;;;;;5093738;28;20167;-45
2022/04/16 12:06:12;;;;;;;4.00;3.50;;;17.70;99.90;;;;;;5094247;28;20187;-45
2022/04/16 12:08:43;;;;;;;4.23;2.90;;;17.70;99.90;;;;;;5093674;28;20743;-46
2022/04/16 12:11:10;;;;;;;4.17;3.30;;;17.60;99.90;;;;;;5093685;28;20167;-46
2022/04/16 12:13:37;;;;;;;3.53;2.87;;;17.50;99.90;;;;;;5093804;28;20241;-47
2022/04/16 12:16:04;;;;;;;3.17;2.83;;;17.40;99.90;;;;;;5093789;28;20268;-45
2022/04/16 12:18:38;;;;;;;3.70;2.67;;;17.30;99.90;;;;;;5093709;28;20174;-45
2022/04/16 12:21:15;;;;;;;3.10;2.80;;;17.10;99.90;;;;;;5093899;28;20166;-47
2022/04/16 12:23:43;;;;;;;3.40;2.90;;;17.00;99.90;;;;;;5094025;28;20567;-46
2022/04/16 12:26:15;;;;;;;3.77;2.27;;;17.10;99.90;;;;;;5093952;28;20557;-46
2022/04/16 12:28:51;;;;;;;2.70;2.20;;;17.20;99.90;;;;;;5095058;28;20554;-48
2022/04/16 12:31:29;;;;;;;2.93;2.50;;;17.50;99.90;;;;;;5097807;28;20211;-45
2022/04/16 12:33:55;;;;;;;3.53;2.80;;;17.60;99.90;;;;;;5095253;28;20642;-46
2022/04/16 12:36:21;;;;;;;3.93;2.50;;;17.70;99.90;;;;;;5097794;28;20218;-48
2022/04/16 12:38:46;;;;;;;4.07;2.53;;;18.00;99.90;;;;;;5100306;28;20190;-46
2022/04/16 12:41:12;;;;;;;2.43;2.23;;;18.00;99.90;;;;;;5100244;28;20208;-45
2022/04/16 12:43:39;;;;;;;3.37;2.67;;;18.10;99.90;;;;;;5100368;28;20189;-46
2022/04/16 12:46:05;;;;;;;3.90;2.77;;;18.20;99.90;;;;;;5100272;28;20276;-46
2022/04/16 12:48:30;;;;;;;4.33;2.27;;;18.10;99.90;;;;;;5100150;28;20293;-46
2022/04/16 12:50:56;;;;;;;3.00;2.50;;;18.20;99.90;;;;;;5100144;28;20179;-46
2022/04/16 12:53:22;;;;;;;2.60;2.40;;;18.30;99.90;;;;;;5100241;28;20171;-45
2022/04/16 12:55:47;;;;;;;2.27;2.07;;;18.50;99.90;;;;;;5100064;28;20179;-46
2022/04/16 12:58:25;;;;;;;2.80;2.50;;;18.60;99.90;;;;;;5101325;28;20179;-44
2022/04/16 13:00:52;;;;;;;2.47;2.17;;;18.60;99.90;;;;;;5081647;28;20186;-47
2022/04/16 13:03:18;;;;;;;3.07;1.77;;;18.80;99.90;;;;;;5100332;28;20644;-46
2022/04/16 13:05:43;;;;;;;3.80;1.90;;;18.90;99.90;;;;;;5100388;28;20190;-44
2022/04/16 13:08:11;;;;;;;3.03;2.00;;;19.00;99.90;;;;;;5100569;28;20530;-48